Terminal Aerodrome Forecast
Issued by NWS

Home | Current Version | Previous Version | Text Only | Print | Product List | Glossary On
Versions: 1 2 3 4 5 6 7 8 9 10 11 12 13
000
FTUS45 KABQ 291140
TAFSAF
TAF
KSAF 291140Z 2912/3012 13010G18KT P6SM SKC
     FM291700 23008KT P6SM FEW100
     FM292200 15011KT P6SM VCSH BKN090
      TEMPO 2922/3001 VRB23G35KT -SHRA
     FM300400 12010KT P6SM SCT090 BKN130=

USA.gov is the U.S. government's official web portal to all federal, state and local government web resources and services.